Airfield :
LOGIN :

Register | Disclaimer

   EN    FR    IT 

 










Legend :    VFR   Marginal VFR   IFR   Intensive IFR   Very Intensive IFR
Visi :
Ceiling :
>= 8 km
>= 3000ft
5 to 8 km
1000 to 3000 ft
1500m to 5 km
500 to 1000 ft
800 to 1500m
200 to 500 ft
< 800m
< 200 ft
Symbols :   Thunderstorms  Fog  Heavy snow  Heavy precipitations  Wind > 20 kt
SIGMETs :     Misc.  Thunderstorms  Icing  Turbulence  Mountain Waves  Volcanic Ashes






- Airport Elevation : 1197 ft
- IATA code : SPM


ETAD - Spangdahlem Ab

CURRENT METAR :
  • 061855Z 03007KT 9999 CLR 01/M03 A3058 RMK AO2 SLP361 T00111032 $

TAF TAF ETAD
Valid from the 06 at 13:00 until the 07 at 19:00 UTC


061255Z 0613/0719 03009KT 9999 FEW025 SCT150 QNH3060INS
BECMG 0617/0618 03009KT 9999 BKN025 QNH3061INS
BECMG 0700/0701 05010KT 9999 SCT015 QNH3062INS
BECMG 0703/0704 07009KT 9999 FEW015 QNH3061INS
BECMG 0709/0710 06009KT 9999 SKC QNH3063INS TX05/0615Z TNM03/0706Z



MET'MAP, your aeronautical weather chart ! - Copyright ORBIFLY December 2007 - Disclaimer

ORBIFLY MET'MAP TEAM :

Programming & Development : Alexandra Zaïnal
Original concept : Baudouin d'Aumeries
Technical & hardware support : Manuel Goepfert
Assistance : Marc-Olivier Méhu




SOURCES & CREDITS :

   NOAA